Time;durP1;ratioP1;P1;durP2;ratioP2;P2;SDS_P1;SDS_P2;PMS_P1;PMS_P2;Temp;Humidity;BMP_temperature;BMP_pressure;BME280_temperature;BME280_humidity;BME280_pressure;Samples;Min_cycle;Max_cycle;Signal;HPM_P1;HPM_P2
2022/12/05 00:02:06;;;;;;;2.08;0.60;;;;;;;;;;5040398;28;20048;-66
2022/12/05 00:04:32;;;;;;;0.75;0.40;;;;;;;;;;5019468;28;20124;-67
2022/12/05 00:06:59;;;;;;;2.55;0.77;;;;;;;;;;5017238;28;21661;-67
2022/12/05 00:09:26;;;;;;;2.20;0.70;;;;;;;;;;5016414;28;20041;-68
2022/12/05 00:11:52;;;;;;;1.48;0.55;;;;;;;;;;5014810;28;20048;-67
2022/12/05 00:14:19;;;;;;;1.60;0.52;;;;;;;;;;5038068;28;20041;-65
2022/12/05 00:16:45;;;;;;;0.95;0.40;;;;;;;;;;5016062;28;20045;-67
2022/12/05 00:19:14;;;;;;;0.98;0.47;;;;;;;;;;5016186;28;20179;-68
2022/12/05 00:21:41;;;;;;;6.30;1.98;;;;;;;;;;5014814;28;20171;-67
2022/12/05 00:24:09;;;;;;;2.25;0.75;;;;;;;;;;5015431;28;20040;-69
2022/12/05 00:26:36;;;;;;;3.42;1.40;;;;;;;;;;5017255;28;20228;-67
2022/12/05 00:29:02;;;;;;;2.05;0.75;;;;;;;;;;5017531;28;20045;-65
2022/12/05 00:31:29;;;;;;;0.82;0.45;;;;;;;;;;5016411;28;20045;-66
2022/12/05 00:33:56;;;;;;;3.03;0.70;;;;;;;;;;5017819;28;20038;-67
2022/12/05 00:36:25;;;;;;;1.42;0.77;;;;;;;;;;5016768;28;20128;-65
2022/12/05 00:38:52;;;;;;;1.13;0.50;;;;;;;;;;5022737;28;20052;-65
2022/12/05 00:41:21;;;;;;;1.60;0.60;;;;;;;;;;5017293;28;20508;-65
2022/12/05 00:44:08;;;;;;;0.80;0.47;;;;;;;;;;5058142;28;20185;-65
2022/12/05 00:46:35;;;;;;;1.13;0.50;;;;;;;;;;5063005;28;20179;-67
2022/12/05 00:49:03;;;;;;;0.60;0.40;;;;;;;;;;5061239;28;20052;-67
2022/12/05 00:51:31;;;;;;;1.55;0.75;;;;;;;;;;5061928;28;20032;-67
2022/12/05 00:53:59;;;;;;;0.70;0.40;;;;;;;;;;5061824;28;20067;-68
2022/12/05 00:56:26;;;;;;;1.05;0.40;;;;;;;;;;5060820;28;20703;-66
2022/12/05 00:58:53;;;;;;;5.07;0.60;;;;;;;;;;5062540;28;20047;-66
2022/12/05 01:01:23;;;;;;;1.20;0.50;;;;;;;;;;5061362;28;20080;-65
2022/12/05 01:03:51;;;;;;;0.75;0.47;;;;;;;;;;5062534;28;20447;-65
2022/12/05 01:06:18;;;;;;;1.23;0.50;;;;;;;;;;5060677;28;20481;-69
2022/12/05 01:08:45;;;;;;;1.25;0.50;;;;;;;;;;5062746;28;20458;-66
2022/12/05 01:11:14;;;;;;;0.85;0.35;;;;;;;;;;5062419;28;20033;-64
2022/12/05 01:13:40;;;;;;;1.60;0.52;;;;;;;;;;5061911;28;20063;-65
2022/12/05 01:16:12;;;;;;;0.52;0.30;;;;;;;;;;5063088;28;20039;-67
2022/12/05 01:18:39;;;;;;;2.83;0.68;;;;;;;;;;5045185;28;21763;-66
2022/12/05 01:21:06;;;;;;;2.45;0.65;;;;;;;;;;5056678;28;20033;-67
2022/12/05 01:23:32;;;;;;;2.38;0.75;;;;;;;;;;5018245;28;20923;-64
2022/12/05 01:25:59;;;;;;;0.73;0.40;;;;;;;;;;5018404;28;20093;-64
2022/12/05 01:28:25;;;;;;;1.05;0.45;;;;;;;;;;5020372;28;20140;-65
2022/12/05 01:30:52;;;;;;;1.52;0.57;;;;;;;;;;5028075;28;20037;-65
2022/12/05 01:33:19;;;;;;;0.80;0.50;;;;;;;;;;5019071;28;20041;-64
2022/12/05 01:35:45;;;;;;;1.60;0.60;;;;;;;;;;5016517;28;20072;-66
2022/12/05 01:38:12;;;;;;;1.75;0.73;;;;;;;;;;5014952;28;20037;-67
2022/12/05 01:40:40;;;;;;;2.60;0.70;;;;;;;;;;5013056;28;20483;-65
2022/12/05 01:43:16;;;;;;;4.43;0.82;;;;;;;;;;5015349;28;20864;-65
2022/12/05 01:45:44;;;;;;;0.73;0.40;;;;;;;;;;5023446;28;20033;-65
2022/12/05 01:48:16;;;;;;;1.92;0.60;;;;;;;;;;5011676;28;20057;-65
2022/12/05 01:50:43;;;;;;;1.23;0.52;;;;;;;;;;5012060;28;20088;-65
2022/12/05 01:53:10;;;;;;;3.20;0.98;;;;;;;;;;5015205;28;20117;-64
2022/12/05 01:55:37;;;;;;;1.70;0.60;;;;;;;;;;5026629;28;20066;-64
2022/12/05 01:58:06;;;;;;;2.30;0.70;;;;;;;;;;5031088;28;20151;-66
2022/12/05 02:00:33;;;;;;;1.00;0.43;;;;;;;;;;5034136;28;20037;-65
2022/12/05 02:03:01;;;;;;;0.70;0.40;;;;;;;;;;5033991;28;20266;-65
2022/12/05 02:05:29;;;;;;;0.68;0.38;;;;;;;;;;5033673;28;20044;-66
2022/12/05 02:07:57;;;;;;;0.45;0.30;;;;;;;;;;5033708;28;20048;-66
2022/12/05 02:10:26;;;;;;;1.48;0.43;;;;;;;;;;5034737;28;20038;-68
2022/12/05 02:12:52;;;;;;;0.88;0.40;;;;;;;;;;5045684;28;20523;-67
2022/12/05 02:15:39;;;;;;;1.10;0.40;;;;;;;;;;5034911;28;20038;-65
2022/12/05 02:18:15;;;;;;;1.48;0.60;;;;;;;;;;5035534;28;20131;-69
2022/12/05 02:20:46;;;;;;;1.70;0.70;;;;;;;;;;5015441;28;20576;-69
2022/12/05 02:23:13;;;;;;;0.38;0.38;;;;;;;;;;5014331;28;20042;-69
2022/12/05 02:25:53;;;;;;;2.05;0.60;;;;;;;;;;5012539;28;21117;-69
2022/12/05 02:28:20;;;;;;;1.13;0.45;;;;;;;;;;5024115;28;20610;-66
2022/12/05 02:30:51;;;;;;;1.55;0.47;;;;;;;;;;5016407;28;20433;-68
2022/12/05 02:33:18;;;;;;;1.75;0.60;;;;;;;;;;5015034;28;20033;-67
2022/12/05 02:35:44;;;;;;;0.30;0.30;;;;;;;;;;5022259;28;20048;-65
2022/12/05 02:38:14;;;;;;;1.17;0.50;;;;;;;;;;5042568;28;20034;-67
2022/12/05 02:40:50;;;;;;;2.13;0.70;;;;;;;;;;5012401;28;20048;-66
2022/12/05 02:43:19;;;;;;;1.63;0.60;;;;;;;;;;5019583;28;20452;-65
2022/12/05 02:45:48;;;;;;;1.02;0.50;;;;;;;;;;5023707;28;20500;-67
2022/12/05 02:48:17;;;;;;;1.63;0.55;;;;;;;;;;5022784;28;20163;-67
2022/12/05 02:50:44;;;;;;;0.30;0.30;;;;;;;;;;5038555;28;20045;-70
2022/12/05 02:53:12;;;;;;;1.30;0.43;;;;;;;;;;5038211;28;20092;-67
2022/12/05 02:55:39;;;;;;;1.52;0.50;;;;;;;;;;5033736;28;20074;-66
2022/12/05 02:58:08;;;;;;;0.70;0.40;;;;;;;;;;5014511;28;20100;-66
2022/12/05 03:00:38;;;;;;;1.88;0.50;;;;;;;;;;5036471;28;20053;-67
2022/12/05 03:03:14;;;;;;;1.48;0.52;;;;;;;;;;5017124;28;20034;-67
2022/12/05 03:05:49;;;;;;;0.65;0.40;;;;;;;;;;5019447;28;20690;-67
2022/12/05 03:08:18;;;;;;;0.93;0.40;;;;;;;;;;5017320;28;20108;-67
2022/12/05 03:10:45;;;;;;;0.75;0.40;;;;;;;;;;5027014;28;20124;-66
2022/12/05 03:13:15;;;;;;;1.52;0.60;;;;;;;;;;5016837;28;20049;-66
2022/12/05 03:15:45;;;;;;;1.88;0.60;;;;;;;;;;5018973;28;20053;-65
2022/12/05 03:18:18;;;;;;;1.65;0.50;;;;;;;;;;5033415;28;20033;-69
2022/12/05 03:20:51;;;;;;;0.73;0.43;;;;;;;;;;5027861;28;20041;-69
2022/12/05 03:23:23;;;;;;;0.85;0.47;;;;;;;;;;5017389;28;20041;-68
2022/12/05 03:25:54;;;;;;;0.73;0.50;;;;;;;;;;5036411;28;20068;-69
2022/12/05 03:28:28;;;;;;;2.95;0.65;;;;;;;;;;5014821;28;20818;-66
2022/12/05 03:30:56;;;;;;;2.30;0.60;;;;;;;;;;5018137;28;20411;-67
2022/12/05 03:33:26;;;;;;;1.50;0.50;;;;;;;;;;5016807;28;20489;-65
2022/12/05 03:36:21;;;;;;;0.93;0.45;;;;;;;;;;5050197;28;20046;-64
2022/12/05 03:38:53;;;;;;;0.80;0.38;;;;;;;;;;5021773;28;20053;-65
2022/12/05 03:41:24;;;;;;;1.77;0.57;;;;;;;;;;5016009;28;20113;-64
2022/12/05 03:43:51;;;;;;;1.15;0.50;;;;;;;;;;5045049;28;20045;-66
2022/12/05 03:46:26;;;;;;;0.75;0.38;;;;;;;;;;5016868;28;20040;-65
2022/12/05 03:48:57;;;;;;;1.20;0.60;;;;;;;;;;5025276;28;20081;-65
2022/12/05 03:51:28;;;;;;;1.98;0.60;;;;;;;;;;5017308;28;20313;-65
2022/12/05 03:54:20;;;;;;;1.58;0.63;;;;;;;;;;5021688;28;20410;-64
2022/12/05 03:56:54;;;;;;;0.80;0.40;;;;;;;;;;5022325;28;20061;-65
2022/12/05 03:59:27;;;;;;;0.77;0.38;;;;;;;;;;5016626;28;20053;-65
2022/12/05 04:01:55;;;;;;;0.30;0.30;;;;;;;;;;5015753;28;20382;-65
2022/12/05 04:04:34;;;;;;;1.45;0.47;;;;;;;;;;5038673;28;20091;-65
2022/12/05 04:07:04;;;;;;;1.73;0.60;;;;;;;;;;5016177;28;20064;-65
2022/12/05 04:09:39;;;;;;;1.90;0.60;;;;;;;;;;5025610;28;20062;-65
2022/12/05 04:12:08;;;;;;;1.75;0.70;;;;;;;;;;5027496;28;20045;-67
2022/12/05 04:14:42;;;;;;;1.42;0.63;;;;;;;;;;5014719;28;20490;-66
2022/12/05 04:17:18;;;;;;;0.90;0.45;;;;;;;;;;5017490;28;20047;-65
2022/12/05 04:22:29;;;;;;;1.20;0.43;;;;;;;;;;5015289;28;20103;-64
2022/12/05 04:27:42;;;;;;;3.42;1.25;;;;;;;;;;5017811;28;20052;-66
2022/12/05 04:30:11;;;;;;;1.52;0.68;;;;;;;;;;5015602;28;20209;-65
2022/12/05 04:32:47;;;;;;;2.78;0.70;;;;;;;;;;5031789;28;20045;-65
2022/12/05 04:35:39;;;;;;;2.60;1.10;;;;;;;;;;5015591;28;20073;-64
2022/12/05 04:38:18;;;;;;;1.38;0.52;;;;;;;;;;5014354;28;20095;-65
2022/12/05 04:40:49;;;;;;;1.90;0.70;;;;;;;;;;5016870;28;20053;-64
2022/12/05 04:43:17;;;;;;;1.73;0.60;;;;;;;;;;5013862;28;20148;-64
2022/12/05 04:45:44;;;;;;;1.45;0.60;;;;;;;;;;5018822;28;20536;-68
2022/12/05 04:48:13;;;;;;;3.55;0.80;;;;;;;;;;5018028;28;20055;-64
2022/12/05 04:50:40;;;;;;;2.60;1.00;;;;;;;;;;5012865;28;20149;-65
2022/12/05 04:53:08;;;;;;;3.65;0.88;;;;;;;;;;5016884;28;20809;-64
2022/12/05 04:55:36;;;;;;;1.75;0.77;;;;;;;;;;5013277;28;20048;-65
2022/12/05 04:58:09;;;;;;;2.35;0.82;;;;;;;;;;5032991;28;20501;-61
2022/12/05 05:00:39;;;;;;;2.10;0.90;;;;;;;;;;5012974;28;20087;-62
2022/12/05 05:03:18;;;;;;;1.92;0.63;;;;;;;;;;5015718;28;21412;-63
2022/12/05 05:05:47;;;;;;;0.95;0.40;;;;;;;;;;5027234;28;20042;-64
2022/12/05 05:08:18;;;;;;;1.15;0.40;;;;;;;;;;5042808;28;20037;-64
2022/12/05 05:10:48;;;;;;;2.50;0.75;;;;;;;;;;5014533;28;20069;-63
2022/12/05 05:13:15;;;;;;;4.28;0.85;;;;;;;;;;5015829;28;20040;-64
2022/12/05 05:15:41;;;;;;;2.22;0.70;;;;;;;;;;5016421;28;21162;-64
2022/12/05 05:18:09;;;;;;;2.10;0.73;;;;;;;;;;5014063;28;20077;-65
2022/12/05 05:20:36;;;;;;;1.80;0.60;;;;;;;;;;5045819;28;20038;-63
2022/12/05 05:23:02;;;;;;;1.75;0.60;;;;;;;;;;5015305;28;20045;-64
2022/12/05 05:25:29;;;;;;;2.85;1.00;;;;;;;;;;5013168;28;20045;-64
2022/12/05 05:27:56;;;;;;;4.97;0.93;;;;;;;;;;5013912;28;20041;-64
2022/12/05 05:30:23;;;;;;;2.70;0.98;;;;;;;;;;5037850;28;20048;-65
2022/12/05 05:32:50;;;;;;;2.83;0.95;;;;;;;;;;5048796;28;20430;-65
2022/12/05 05:35:17;;;;;;;2.75;0.90;;;;;;;;;;5012945;28;20535;-64
2022/12/05 05:37:43;;;;;;;0.75;0.40;;;;;;;;;;5015174;28;20130;-64
2022/12/05 05:40:11;;;;;;;2.08;0.80;;;;;;;;;;5015228;28;20143;-64
2022/12/05 05:42:42;;;;;;;1.90;0.68;;;;;;;;;;5013566;28;20438;-64
2022/12/05 05:45:09;;;;;;;1.88;0.68;;;;;;;;;;5015863;28;20104;-64
2022/12/05 05:47:37;;;;;;;1.95;0.50;;;;;;;;;;5033663;28;20135;-64
2022/12/05 05:50:04;;;;;;;1.55;0.57;;;;;;;;;;5034265;28;20041;-62
2022/12/05 05:52:34;;;;;;;2.10;0.60;;;;;;;;;;5035242;28;20058;-64
2022/12/05 05:55:01;;;;;;;1.65;0.60;;;;;;;;;;5034452;28;20049;-63
2022/12/05 05:57:28;;;;;;;1.85;0.68;;;;;;;;;;5032025;28;20059;-65
2022/12/05 05:59:55;;;;;;;1.90;0.70;;;;;;;;;;5035751;28;20037;-64
2022/12/05 06:02:22;;;;;;;1.83;0.70;;;;;;;;;;5046068;28;20044;-65
2022/12/05 06:04:48;;;;;;;2.22;0.70;;;;;;;;;;5012678;28;20560;-63
2022/12/05 06:07:15;;;;;;;1.52;0.60;;;;;;;;;;5013696;28;20054;-65
2022/12/05 06:09:42;;;;;;;3.05;0.70;;;;;;;;;;5035223;28;20125;-65
2022/12/05 06:12:08;;;;;;;4.57;0.70;;;;;;;;;;5009965;28;20038;-64
2022/12/05 06:14:35;;;;;;;2.53;0.80;;;;;;;;;;5014923;28;20041;-65
2022/12/05 06:17:02;;;;;;;2.33;0.70;;;;;;;;;;5013915;28;20029;-64
2022/12/05 06:19:28;;;;;;;2.85;0.70;;;;;;;;;;5013459;28;20068;-63
2022/12/05 06:21:55;;;;;;;2.25;0.70;;;;;;;;;;5013884;28;20153;-62
2022/12/05 06:24:21;;;;;;;2.45;0.75;;;;;;;;;;5012671;28;20042;-63
2022/12/05 06:26:48;;;;;;;2.40;0.70;;;;;;;;;;5013875;28;20079;-64
2022/12/05 06:29:15;;;;;;;2.47;0.80;;;;;;;;;;5014333;28;20038;-65
2022/12/05 06:31:41;;;;;;;2.42;0.85;;;;;;;;;;5012044;28;20045;-64
2022/12/05 06:34:08;;;;;;;2.33;0.85;;;;;;;;;;5025704;28;20099;-63
2022/12/05 06:36:34;;;;;;;3.60;0.85;;;;;;;;;;5020626;28;20049;-64
2022/12/05 06:39:01;;;;;;;1.83;0.70;;;;;;;;;;5024196;28;20044;-65
2022/12/05 06:41:28;;;;;;;3.30;0.80;;;;;;;;;;5018148;28;20041;-64
2022/12/05 06:43:55;;;;;;;2.15;0.80;;;;;;;;;;5025041;28;20049;-65
2022/12/05 06:46:24;;;;;;;2.13;0.70;;;;;;;;;;5038371;28;20041;-66
2022/12/05 06:48:52;;;;;;;3.38;1.00;;;;;;;;;;5026746;28;20547;-65
2022/12/05 06:51:19;;;;;;;2.50;0.80;;;;;;;;;;5019290;28;20040;-64
2022/12/05 06:53:46;;;;;;;3.95;0.68;;;;;;;;;;5033964;28;20140;-64
2022/12/05 06:56:14;;;;;;;1.70;0.70;;;;;;;;;;5037674;28;20037;-64
2022/12/05 06:58:41;;;;;;;2.97;0.80;;;;;;;;;;5039179;28;20033;-65
2022/12/05 07:04:00;;;;;;;1.88;0.70;;;;;;;;;;5034162;28;20102;-64
2022/12/05 07:06:27;;;;;;;1.92;0.70;;;;;;;;;;5034777;28;20045;-66
2022/12/05 07:08:54;;;;;;;2.28;0.75;;;;;;;;;;5034951;28;20045;-63
2022/12/05 07:11:21;;;;;;;3.40;0.60;;;;;;;;;;5033371;28;20257;-63
2022/12/05 07:13:47;;;;;;;5.32;0.93;;;;;;;;;;5034146;28;20059;-65
2022/12/05 07:16:14;;;;;;;2.13;0.68;;;;;;;;;;5033807;28;20103;-64
2022/12/05 07:18:41;;;;;;;1.13;0.50;;;;;;;;;;5034018;28;20196;-64
2022/12/05 07:21:09;;;;;;;1.73;0.70;;;;;;;;;;5033419;28;20033;-65
2022/12/05 07:23:35;;;;;;;1.88;0.80;;;;;;;;;;5031952;28;20085;-64
2022/12/05 07:26:06;;;;;;;1.27;0.60;;;;;;;;;;5032550;28;20044;-65
2022/12/05 07:28:32;;;;;;;0.75;0.40;;;;;;;;;;5033465;28;20045;-65
2022/12/05 07:31:00;;;;;;;2.33;0.70;;;;;;;;;;5035002;28;20873;-69
2022/12/05 07:33:26;;;;;;;0.68;0.40;;;;;;;;;;5032912;28;20121;-65
2022/12/05 07:35:53;;;;;;;0.80;0.43;;;;;;;;;;5035231;28;20033;-65
2022/12/05 07:38:20;;;;;;;0.82;0.45;;;;;;;;;;5033148;28;20072;-66
2022/12/05 07:40:46;;;;;;;1.10;0.45;;;;;;;;;;5035060;28;20042;-65
2022/12/05 07:43:13;;;;;;;2.60;0.82;;;;;;;;;;5033624;28;20037;-65
2022/12/05 07:45:40;;;;;;;1.48;0.70;;;;;;;;;;5033320;28;20127;-66
2022/12/05 07:48:06;;;;;;;1.77;0.70;;;;;;;;;;5046335;28;20052;-66
2022/12/05 07:50:33;;;;;;;4.75;0.68;;;;;;;;;;5015150;28;20033;-65
2022/12/05 07:52:59;;;;;;;1.08;0.47;;;;;;;;;;5018172;28;20034;-64
2022/12/05 07:55:26;;;;;;;0.98;0.43;;;;;;;;;;5017719;28;20043;-64
2022/12/05 07:57:53;;;;;;;1.23;0.50;;;;;;;;;;5022766;28;20076;-66
2022/12/05 08:00:19;;;;;;;2.10;0.80;;;;;;;;;;5045172;28;20033;-63
2022/12/05 08:02:46;;;;;;;2.08;0.73;;;;;;;;;;5019854;28;20050;-64
2022/12/05 08:05:13;;;;;;;1.98;0.77;;;;;;;;;;5015034;28;20041;-65
2022/12/05 08:07:39;;;;;;;1.55;0.52;;;;;;;;;;5017985;28;20380;-66
2022/12/05 08:10:06;;;;;;;2.95;0.80;;;;;;;;;;5019285;28;20037;-65
2022/12/05 08:12:33;;;;;;;1.13;0.50;;;;;;;;;;5026181;28;20185;-65
2022/12/05 08:15:00;;;;;;;0.38;0.30;;;;;;;;;;5017292;28;20063;-63
2022/12/05 08:17:29;;;;;;;0.45;0.30;;;;;;;;;;5010644;28;21850;-64
2022/12/05 08:19:55;;;;;;;2.22;0.70;;;;;;;;;;5045624;28;20099;-64
2022/12/05 08:22:22;;;;;;;1.85;0.68;;;;;;;;;;5015727;28;20136;-62
2022/12/05 08:24:52;;;;;;;1.30;0.47;;;;;;;;;;5024744;28;20065;-65
2022/12/05 08:27:18;;;;;;;3.72;0.70;;;;;;;;;;5012826;28;20080;-64
2022/12/05 08:29:45;;;;;;;2.17;0.70;;;;;;;;;;5027463;28;20599;-63
2022/12/05 08:32:11;;;;;;;5.65;0.90;;;;;;;;;;5017990;28;20894;-62
2022/12/05 08:34:38;;;;;;;2.05;0.70;;;;;;;;;;5016036;28;20164;-64
2022/12/05 08:37:05;;;;;;;1.60;0.60;;;;;;;;;;5022397;28;20092;-65
2022/12/05 08:39:31;;;;;;;3.85;0.70;;;;;;;;;;5040812;28;20049;-64
2022/12/05 08:41:58;;;;;;;4.30;0.82;;;;;;;;;;5040778;28;20045;-65
2022/12/05 08:44:24;;;;;;;2.03;0.60;;;;;;;;;;5040660;28;20039;-66
2022/12/05 08:46:51;;;;;;;1.55;0.65;;;;;;;;;;5040020;28;20044;-66
2022/12/05 08:49:18;;;;;;;1.20;0.40;;;;;;;;;;5030172;28;20042;-65
2022/12/05 08:51:45;;;;;;;1.77;0.70;;;;;;;;;;5036269;28;20053;-66
2022/12/05 08:54:11;;;;;;;1.05;0.35;;;;;;;;;;5016287;28;20033;-64
2022/12/05 08:56:38;;;;;;;1.63;0.50;;;;;;;;;;5016822;28;20045;-65
2022/12/05 08:59:05;;;;;;;1.67;0.60;;;;;;;;;;5015084;28;20131;-64
2022/12/05 09:01:32;;;;;;;1.63;0.70;;;;;;;;;;5018596;28;20037;-62
2022/12/05 09:04:03;;;;;;;2.28;0.68;;;;;;;;;;5017119;28;20111;-64
2022/12/05 09:06:30;;;;;;;2.20;0.70;;;;;;;;;;5015161;28;20836;-65
2022/12/05 09:08:58;;;;;;;0.43;0.30;;;;;;;;;;5015722;28;20160;-64
2022/12/05 09:11:29;;;;;;;1.13;0.47;;;;;;;;;;5023602;28;20040;-64
2022/12/05 09:13:56;;;;;;;2.92;0.73;;;;;;;;;;5016413;28;20041;-64
2022/12/05 09:16:24;;;;;;;1.20;0.43;;;;;;;;;;5015199;28;20038;-64
2022/12/05 09:18:52;;;;;;;0.57;0.40;;;;;;;;;;5015726;28;20186;-64
2022/12/05 09:21:20;;;;;;;1.55;0.60;;;;;;;;;;5014826;28;20184;-63
2022/12/05 09:23:47;;;;;;;1.10;0.47;;;;;;;;;;5012941;28;20725;-64
2022/12/05 09:26:15;;;;;;;2.15;0.52;;;;;;;;;;5015589;28;20056;-64
2022/12/05 09:28:43;;;;;;;1.00;0.40;;;;;;;;;;5012555;28;20559;-64
2022/12/05 09:31:16;;;;;;;4.45;0.82;;;;;;;;;;5017620;28;20045;-63
2022/12/05 09:33:43;;;;;;;1.02;0.40;;;;;;;;;;5043154;28;20045;-62
2022/12/05 09:36:15;;;;;;;2.67;0.57;;;;;;;;;;5035466;28;20092;-62
2022/12/05 09:38:42;;;;;;;1.15;1.05;;;;;;;;;;5034743;28;20113;-63
2022/12/05 09:42:03;;;;;;;1.25;0.38;;;;;;;;;;5035299;28;20033;-63
2022/12/05 09:44:23;;;;;;;0.82;0.32;;;;;;;;;;5019432;28;20793;-64
2022/12/05 09:46:56;;;;;;;1.52;0.60;;;;;;;;;;5016140;28;20447;-64
2022/12/05 09:49:23;;;;;;;1.27;0.57;;;;;;;;;;5013603;28;20061;-63
2022/12/05 09:51:51;;;;;;;0.55;0.22;;;;;;;;;;5016044;28;20048;-65
2022/12/05 09:54:18;;;;;;;3.28;0.88;;;;;;;;;;5025116;28;20033;-64
2022/12/05 09:56:45;;;;;;;0.63;0.40;;;;;;;;;;5015010;28;20064;-66
2022/12/05 09:59:14;;;;;;;1.75;0.60;;;;;;;;;;5014207;28;20502;-64
2022/12/05 10:01:41;;;;;;;3.63;0.80;;;;;;;;;;5024543;28;20056;-64
2022/12/05 10:04:29;;;;;;;1.13;0.52;;;;;;;;;;5020605;28;20045;-64
2022/12/05 10:07:22;;;;;;;0.52;0.30;;;;;;;;;;5015738;28;20053;-64
2022/12/05 10:10:07;;;;;;;2.85;0.75;;;;;;;;;;5020602;28;20502;-65
2022/12/05 10:12:34;;;;;;;1.42;0.40;;;;;;;;;;5016943;28;20041;-64
2022/12/05 10:15:11;;;;;;;4.00;0.73;;;;;;;;;;5044130;28;20149;-65
2022/12/05 10:17:39;;;;;;;1.45;0.52;;;;;;;;;;5018785;28;20160;-64
2022/12/05 10:20:26;;;;;;;1.88;0.70;;;;;;;;;;5023724;28;20049;-63
2022/12/05 10:23:01;;;;;;;2.05;0.80;;;;;;;;;;5021240;28;20445;-64
2022/12/05 10:25:27;;;;;;;1.27;0.50;;;;;;;;;;5017846;28;20061;-64
2022/12/05 10:28:00;;;;;;;1.30;0.60;;;;;;;;;;5017230;28;20057;-63
2022/12/05 10:30:35;;;;;;;1.92;0.50;;;;;;;;;;5017963;28;20058;-64
2022/12/05 10:33:05;;;;;;;1.50;0.80;;;;;;;;;;5018266;28;20037;-66
2022/12/05 10:35:36;;;;;;;2.22;0.70;;;;;;;;;;5018919;28;20133;-64
2022/12/05 10:38:07;;;;;;;2.05;0.77;;;;;;;;;;5029315;28;20067;-65
2022/12/05 10:40:35;;;;;;;1.45;0.50;;;;;;;;;;5019194;28;20041;-63
2022/12/05 10:43:03;;;;;;;3.75;0.80;;;;;;;;;;5042083;28;20033;-63
2022/12/05 10:45:30;;;;;;;1.33;0.60;;;;;;;;;;5040504;28;20040;-65
2022/12/05 10:47:57;;;;;;;3.08;0.82;;;;;;;;;;5041978;28;20076;-63
2022/12/05 10:50:27;;;;;;;1.85;0.60;;;;;;;;;;5037677;28;20040;-63
2022/12/05 10:52:55;;;;;;;2.90;0.85;;;;;;;;;;5027196;28;20065;-63
2022/12/05 10:55:23;;;;;;;7.03;1.05;;;;;;;;;;5015686;28;20682;-64
2022/12/05 10:57:51;;;;;;;1.80;0.60;;;;;;;;;;5029086;28;20052;-64
2022/12/05 11:00:21;;;;;;;1.60;0.55;;;;;;;;;;5021396;28;20060;-64
2022/12/05 11:02:48;;;;;;;0.63;0.40;;;;;;;;;;5018324;28;20088;-63
2022/12/05 11:05:14;;;;;;;0.38;0.28;;;;;;;;;;5019065;28;20120;-64
2022/12/05 11:07:44;;;;;;;2.10;0.70;;;;;;;;;;5018446;28;20132;-64
2022/12/05 11:10:26;;;;;;;2.92;1.00;;;;;;;;;;5015769;28;20041;-64
2022/12/05 11:12:54;;;;;;;5.88;1.35;;;;;;;;;;5033387;28;20052;-63
2022/12/05 11:15:26;;;;;;;2.92;1.10;;;;;;;;;;5019004;28;20062;-64
2022/12/05 11:17:57;;;;;;;2.83;1.08;;;;;;;;;;5017453;28;21817;-64
2022/12/05 11:20:24;;;;;;;3.67;1.23;;;;;;;;;;5017193;28;20041;-64
2022/12/05 11:22:51;;;;;;;3.33;1.02;;;;;;;;;;5016642;28;22351;-64
2022/12/05 11:25:35;;;;;;;2.58;1.02;;;;;;;;;;5017210;28;20568;-64
2022/12/05 11:28:31;;;;;;;3.05;1.00;;;;;;;;;;5023888;28;20056;-64
2022/12/05 11:30:59;;;;;;;4.05;1.27;;;;;;;;;;5019569;28;20418;-64
2022/12/05 11:33:26;;;;;;;1.70;0.75;;;;;;;;;;5018748;28;21016;-63
2022/12/05 11:35:56;;;;;;;4.40;1.50;;;;;;;;;;5044719;28;20120;-65
2022/12/05 11:38:24;;;;;;;4.45;1.35;;;;;;;;;;5016393;28;20038;-63
2022/12/05 11:41:14;;;;;;;2.60;1.00;;;;;;;;;;5027847;28;20098;-65
2022/12/05 11:43:59;;;;;;;4.45;1.30;;;;;;;;;;5027044;28;20048;-64
2022/12/05 11:46:26;;;;;;;4.03;1.30;;;;;;;;;;5032029;28;20037;-63
2022/12/05 11:48:56;;;;;;;2.88;1.15;;;;;;;;;;5033650;28;20054;-65
2022/12/05 11:51:36;;;;;;;5.07;1.10;;;;;;;;;;5020677;28;20130;-64
2022/12/05 11:54:03;;;;;;;2.65;1.15;;;;;;;;;;5018114;28;20103;-64
2022/12/05 11:56:37;;;;;;;9.07;1.33;;;;;;;;;;5036343;28;20038;-65
2022/12/05 11:59:09;;;;;;;4.03;1.05;;;;;;;;;;5019540;28;20033;-64
2022/12/05 12:01:36;;;;;;;3.27;1.27;;;;;;;;;;5036799;28;20859;-64
2022/12/05 12:04:21;;;;;;;3.03;1.10;;;;;;;;;;5017908;28;20333;-64
2022/12/05 12:07:00;;;;;;;6.80;1.40;;;;;;;;;;5026100;28;20045;-64
2022/12/05 12:09:35;;;;;;;9.05;1.33;;;;;;;;;;5017018;28;20060;-65
2022/12/05 12:12:17;;;;;;;3.92;1.10;;;;;;;;;;5017646;28;20124;-64
2022/12/05 12:14:47;;;;;;;6.78;1.15;;;;;;;;;;5033502;28;20120;-64
2022/12/05 12:17:15;;;;;;;3.35;1.30;;;;;;;;;;5050108;28;20116;-64
2022/12/05 12:20:02;;;;;;;3.75;1.33;;;;;;;;;;5015093;28;20041;-64
2022/12/05 12:22:29;;;;;;;2.97;1.00;;;;;;;;;;5015111;28;20765;-63
2022/12/05 12:24:58;;;;;;;3.38;1.25;;;;;;;;;;5015497;28;20275;-63
2022/12/05 12:27:28;;;;;;;3.35;0.98;;;;;;;;;;5014430;28;20699;-63
2022/12/05 12:30:11;;;;;;;4.88;1.40;;;;;;;;;;5015433;28;20869;-63
2022/12/05 12:32:37;;;;;;;1.97;0.87;;;;;;;;;;5013475;28;20179;-64
2022/12/05 12:35:19;;;;;;;2.95;0.90;;;;;;;;;;5016451;28;20290;-64
2022/12/05 12:37:53;;;;;;;2.88;0.95;;;;;;;;;;5040816;28;20402;-63
2022/12/05 12:40:22;;;;;;;2.53;1.02;;;;;;;;;;5039611;28;20039;-62
2022/12/05 12:43:11;;;;;;;2.72;1.08;;;;;;;;;;5039270;28;20210;-63
2022/12/05 12:45:40;;;;;;;3.83;1.38;;;;;;;;;;5040746;28;20175;-64
2022/12/05 12:48:22;;;;;;;4.03;1.35;;;;;;;;;;5040507;28;20060;-62
2022/12/05 12:50:52;;;;;;;3.70;1.13;;;;;;;;;;5017991;28;20049;-63
2022/12/05 12:53:21;;;;;;;3.50;1.30;;;;;;;;;;5027642;28;20136;-61
2022/12/05 12:55:53;;;;;;;4.93;1.45;;;;;;;;;;5017195;28;20039;-62
2022/12/05 12:58:44;;;;;;;4.03;1.17;;;;;;;;;;5043802;28;20217;-64
2022/12/05 13:01:10;;;;;;;7.05;1.27;;;;;;;;;;5015753;28;20037;-62
2022/12/05 13:03:40;;;;;;;4.60;1.42;;;;;;;;;;5012384;28;20030;-65
2022/12/05 13:06:09;;;;;;;2.33;0.90;;;;;;;;;;5033939;28;20128;-65
2022/12/05 13:08:45;;;;;;;3.00;1.20;;;;;;;;;;5014312;28;20141;-65
2022/12/05 13:11:13;;;;;;;5.90;1.13;;;;;;;;;;5015490;28;20512;-63
2022/12/05 13:13:43;;;;;;;3.58;1.25;;;;;;;;;;5015311;28;20036;-63
2022/12/05 13:16:12;;;;;;;2.92;1.08;;;;;;;;;;5018285;28;20033;-62
2022/12/05 13:18:38;;;;;;;4.30;1.27;;;;;;;;;;5015297;28;20033;-61
2022/12/05 13:21:08;;;;;;;17.92;1.73;;;;;;;;;;5018048;28;20052;-64
2022/12/05 13:23:47;;;;;;;4.88;1.50;;;;;;;;;;5016033;28;20100;-61
2022/12/05 13:26:13;;;;;;;2.97;1.20;;;;;;;;;;5017635;28;20084;-61
2022/12/05 13:28:51;;;;;;;3.35;1.00;;;;;;;;;;5016215;28;20064;-62
2022/12/05 13:31:18;;;;;;;3.05;1.05;;;;;;;;;;5046652;28;20048;-63
2022/12/05 13:33:46;;;;;;;4.53;1.67;;;;;;;;;;5012848;28;20037;-62
2022/12/05 13:42:14;;;;;;;4.00;1.05;;;;;;;;;;5023891;28;20018;-62
2022/12/05 13:44:45;;;;;;;3.10;1.17;;;;;;;;;;5015250;28;20482;-64
2022/12/05 13:47:32;;;;;;;5.13;1.50;;;;;;;;;;5015776;28;20033;-63
2022/12/05 13:50:13;;;;;;;2.70;1.10;;;;;;;;;;5013106;28;20398;-61
2022/12/05 13:52:50;;;;;;;5.75;1.98;;;;;;;;;;5016158;28;20490;-62
2022/12/05 13:55:31;;;;;;;4.47;1.25;;;;;;;;;;5017442;28;20049;-63
2022/12/05 13:57:59;;;;;;;3.17;1.20;;;;;;;;;;5034977;28;20045;-63
2022/12/05 14:00:28;;;;;;;4.45;1.45;;;;;;;;;;5014924;28;20844;-63
2022/12/05 14:02:55;;;;;;;6.82;1.30;;;;;;;;;;5015949;28;20053;-64
2022/12/05 14:05:24;;;;;;;6.00;1.58;;;;;;;;;;5017923;28;20480;-63
2022/12/05 14:07:57;;;;;;;6.78;1.20;;;;;;;;;;5016672;28;20191;-62
2022/12/05 14:10:43;;;;;;;3.75;1.48;;;;;;;;;;5016722;28;20060;-62
2022/12/05 14:13:10;;;;;;;7.00;1.30;;;;;;;;;;5016379;28;20091;-63
2022/12/05 14:15:41;;;;;;;4.78;1.42;;;;;;;;;;5016873;28;20063;-62
2022/12/05 14:18:08;;;;;;;4.53;1.30;;;;;;;;;;5020554;28;20034;-64
2022/12/05 14:20:53;;;;;;;3.65;1.10;;;;;;;;;;5024154;28;20065;-64
2022/12/05 14:23:22;;;;;;;5.07;1.27;;;;;;;;;;5033781;28;20041;-65
2022/12/05 14:25:59;;;;;;;2.53;0.95;;;;;;;;;;5016772;28;20419;-64
2022/12/05 14:28:38;;;;;;;3.13;1.15;;;;;;;;;;5016695;28;20045;-62
2022/12/05 14:31:23;;;;;;;3.00;1.02;;;;;;;;;;5016872;28;20029;-63
2022/12/05 14:34:08;;;;;;;3.17;1.30;;;;;;;;;;5015093;28;20552;-64
2022/12/05 14:36:37;;;;;;;5.07;1.35;;;;;;;;;;5014275;28;20045;-64
2022/12/05 14:39:19;;;;;;;5.45;1.60;;;;;;;;;;5014908;28;20042;-63
2022/12/05 14:41:46;;;;;;;3.65;1.02;;;;;;;;;;5024983;28;20128;-62
2022/12/05 14:44:18;;;;;;;4.20;1.60;;;;;;;;;;5016051;28;20160;-64
2022/12/05 14:46:45;;;;;;;5.32;1.88;;;;;;;;;;5015331;28;20094;-65
2022/12/05 14:49:41;;;;;;;5.75;1.88;;;;;;;;;;5013522;28;20072;-64
2022/12/05 14:52:11;;;;;;;7.70;2.03;;;;;;;;;;5016488;28;20060;-62
2022/12/05 14:54:39;;;;;;;7.47;1.65;;;;;;;;;;5018877;28;20160;-62
2022/12/05 14:57:15;;;;;;;6.55;1.77;;;;;;;;;;5016156;28;20393;-60
2022/12/05 14:59:41;;;;;;;5.43;1.70;;;;;;;;;;5020910;28;20543;-63
2022/12/05 15:02:14;;;;;;;7.85;1.52;;;;;;;;;;5016307;28;20114;-61
2022/12/05 15:04:46;;;;;;;2.75;1.13;;;;;;;;;;5008852;28;20063;-61
2022/12/05 15:07:16;;;;;;;2.72;1.10;;;;;;;;;;5029415;28;20029;-61
2022/12/05 15:10:02;;;;;;;4.40;1.38;;;;;;;;;;5018001;28;20448;-63
2022/12/05 15:12:43;;;;;;;5.22;1.75;;;;;;;;;;5016928;28;20069;-62
2022/12/05 15:15:16;;;;;;;10.38;1.55;;;;;;;;;;5027583;28;20037;-61
2022/12/05 15:17:49;;;;;;;8.00;1.23;;;;;;;;;;5017527;28;20045;-63